Richmond, Indiana
Current Conditions -  °F | °C
As of 5:15 AM on Monday 26 Jan 2015 (Local Time) from KMWO Reporting Station
Overcast Overcast  
Wind Chill:   Ceiling: 3600
Heat Index: 22°   Visibility: 10mi
Dew Point: 16°   Wind: 15mph
Humidity: 77%   Direction: 10°N
Pressure: 29.85"   Gusts: 20mph
Location:  39.83°N, 84.89°W
Report Text: KMWO 261015Z AUTO 01013G17KT 10SM BKN036 BKN050 OVC065 M06/M09 A2985 RMK AO2 T10571091
Loading
Personal Weather Stations






























Interactive Weather Map New forecast layout! Learn more

10-Day Weather Forecast

Advertisements
Track Severe Weather on mobile